National Weather Service Raw Text Product

Displaying AFOS PIL: TAFOTM Received: 2018-01-12 06:41 UTC


035 
FTUS43 KDMX 120641 AAB
TAFOTM
TAF AMD
KOTM 120641Z 1207/1306 31016KT P6SM SCT015
      TEMPO 1207/1208 BKN015
     FM121000 33018G24KT P6SM SKC
     FM121300 33015KT P6SM SKC
     FM130300 35014KT P6SM BKN090=